Time;durP1;ratioP1;P1;durP2;ratioP2;P2;SDS_P1;SDS_P2;PMS_P1;PMS_P2;Temp;Humidity;BMP_temperature;BMP_pressure;BME280_temperature;BME280_humidity;BME280_pressure;Samples;Min_cycle;Max_cycle;Signal;HPM_P1;HPM_P2
2021/08/23 00:01:24;;;;;;;13.35;8.73;;;;;;;21.99;62.94;101707.84;4882833;28;122887;-76
2021/08/23 00:03:51;;;;;;;12.38;9.02;;;;;;;22.00;63.27;101709.53;4863127;28;113335;-76
2021/08/23 00:06:18;;;;;;;9.93;7.57;;;;;;;22.01;62.91;101708.56;4860108;28;114608;-76
2021/08/23 00:08:46;;;;;;;12.23;8.18;;;;;;;22.02;62.95;101712.97;4859475;28;123916;-76
2021/08/23 00:11:15;;;;;;;11.20;8.60;;;;;;;22.02;62.96;101719.25;4859962;28;122778;-76
2021/08/23 00:13:43;;;;;;;13.35;9.23;;;;;;;22.02;62.99;101718.34;4877500;28;114458;-76
2021/08/23 00:16:10;;;;;;;12.55;9.00;;;;;;;21.97;62.87;101722.28;4861175;28;114833;-76
2021/08/23 00:18:37;;;;;;;13.82;8.70;;;;;;;21.93;63.06;101723.50;4876931;28;124516;-76
2021/08/23 00:21:11;;;;;;;11.65;7.97;;;;;;;21.93;63.09;101731.59;4875007;28;123321;-76
2021/08/23 00:23:49;;;;;;;12.48;9.27;;;;;;;21.89;63.18;101735.53;4872024;28;115380;-76
2021/08/23 00:26:22;;;;;;;13.80;9.65;;;;;;;21.85;63.29;101734.06;4874324;28;114893;-76
2021/08/23 00:28:49;;;;;;;14.50;9.82;;;;;;;21.82;63.27;101734.28;4873699;28;124291;-77
2021/08/23 00:31:16;;;;;;;13.70;10.00;;;;;;;21.79;63.37;101739.91;4867671;28;125015;-76
2021/08/23 00:33:43;;;;;;;14.57;9.57;;;;;;;21.76;63.46;101741.03;4878784;28;114064;-76
2021/08/23 00:36:10;;;;;;;13.98;10.55;;;;;;;21.76;63.52;101741.03;4870183;28;113923;-76
2021/08/23 00:38:38;;;;;;;14.20;10.18;;;;;;;21.77;63.54;101749.97;4852978;28;122587;-76
2021/08/23 00:41:05;;;;;;;12.63;9.77;;;;;;;21.74;63.62;101751.06;4851193;28;123096;-76
2021/08/23 00:43:32;;;;;;;14.07;9.55;;;;;;;21.72;63.77;101755.72;4878806;28;114505;-76
2021/08/23 00:46:03;;;;;;;12.45;9.43;;;;;;;21.71;63.79;101747.75;4851174;28;112804;-76
2021/08/23 00:48:34;;;;;;;14.05;9.60;;;;;;;21.68;63.98;101758.78;4866401;28;123710;-76
2021/08/23 00:51:02;;;;;;;12.27;9.85;;;;;;;21.67;63.89;101762.47;4875873;28;122918;-77
2021/08/23 00:53:29;;;;;;;12.10;9.38;;;;;;;21.63;64.13;101766.38;4875904;28;114060;-77
2021/08/23 00:55:57;;;;;;;11.32;8.50;;;;;;;21.57;64.10;101765.88;4858512;28;112933;-77
2021/08/23 00:58:25;;;;;;;10.23;8.27;;;;;;;21.54;64.21;101774.19;4866647;28;124352;-77
2021/08/23 01:01:02;;;;;;;10.20;7.68;;;;;;;21.52;64.33;101780.69;4879578;28;123720;-76
2021/08/23 01:04:04;;;;;;;10.50;8.02;;;;;;;21.47;64.35;101783.69;4876737;28;114521;-76
2021/08/23 01:06:32;;;;;;;11.48;8.15;;;;;;;21.46;64.33;101787.41;4845648;28;113623;-75
2021/08/23 01:09:11;;;;;;;10.90;8.13;;;;;;;21.41;64.55;101784.16;4862704;28;123975;-75
2021/08/23 01:11:45;;;;;;;12.45;9.30;;;;;;;21.39;64.83;101796.88;4876099;28;123723;-76
2021/08/23 01:14:12;;;;;;;10.88;8.70;;;;;;;21.36;64.69;101794.41;4858023;28;115217;-76
2021/08/23 01:16:39;;;;;;;11.95;9.20;;;;;;;21.35;64.80;101800.78;4862937;28;115338;-76
2021/08/23 01:19:08;;;;;;;11.73;9.13;;;;;;;21.33;64.90;101803.59;4878268;28;124004;-76
2021/08/23 01:21:35;;;;;;;12.75;9.38;;;;;;;21.30;64.85;101808.34;4875230;28;122918;-76
2021/08/23 01:24:04;;;;;;;14.27;9.68;;;;;;;21.31;64.90;101820.88;4876354;28;115234;-77
2021/08/23 01:26:35;;;;;;;11.82;9.00;;;;;;;21.29;65.04;101817.44;4859189;28;114240;-76
2021/08/23 01:29:08;;;;;;;13.85;9.57;;;;;;;21.29;64.87;101823.66;4875942;28;124529;-76
2021/08/23 01:31:38;;;;;;;14.95;9.82;;;;;;;21.29;64.90;101822.81;4876060;28;122349;-77
2021/08/23 01:34:06;;;;;;;15.38;10.10;;;;;;;21.28;64.71;101830.03;4863258;28;115457;-76
2021/08/23 01:36:34;;;;;;;14.30;9.88;;;;;;;21.28;64.92;101837.25;4859385;28;113268;-76
2021/08/23 01:39:01;;;;;;;16.65;11.65;;;;;;;21.28;64.77;101834.56;4877240;28;124831;-76
2021/08/23 01:41:29;;;;;;;18.85;12.90;;;;;;;21.29;64.87;101839.00;4876396;28;123750;-76
2021/08/23 01:43:56;;;;;;;18.60;12.35;;;;;;;21.30;64.73;101846.06;4859134;28;113622;-76
2021/08/23 01:46:29;;;;;;;18.98;12.80;;;;;;;21.29;64.98;101844.38;4876928;28;114458;-77
2021/08/23 01:49:00;;;;;;;18.92;12.45;;;;;;;21.29;64.90;101850.63;4875937;28;124220;-76
2021/08/23 01:51:27;;;;;;;19.45;12.80;;;;;;;21.29;64.92;101844.38;4862113;28;124570;-77
2021/08/23 01:53:54;;;;;;;19.75;13.52;;;;;;;21.29;64.94;101849.75;4878011;28;113474;-76
2021/08/23 01:56:22;;;;;;;18.52;13.05;;;;;;;21.31;64.77;101854.06;4879729;28;113835;-77
2021/08/23 01:58:49;;;;;;;19.90;12.75;;;;;;;21.31;64.92;101859.44;4875905;28;124374;-76
2021/08/23 02:01:16;;;;;;;20.88;13.32;;;;;;;21.33;64.92;101856.63;4870141;28;123589;-77
2021/08/23 02:03:44;;;;;;;19.23;12.43;;;;;;;21.33;64.91;101859.34;4878679;28;114286;-76
2021/08/23 02:06:11;;;;;;;20.75;12.40;;;;;;;21.32;64.80;101855.78;4876099;28;114082;-77
2021/08/23 02:08:38;;;;;;;19.85;12.40;;;;;;;21.32;64.76;101865.69;4868342;28;124059;-76
2021/08/23 02:11:05;;;;;;;17.95;11.88;;;;;;;21.30;64.79;101868.50;4868779;28;123318;-76
2021/08/23 02:13:32;;;;;;;18.05;12.80;;;;;;;21.30;64.72;101873.03;4844463;28;112232;-77
2021/08/23 02:15:59;;;;;;;18.50;12.40;;;;;;;21.28;64.85;101870.44;4871681;28;113360;-76
2021/08/23 02:18:26;;;;;;;17.92;12.15;;;;;;;21.27;64.81;101873.28;4875868;28;124902;-77
2021/08/23 02:20:54;;;;;;;19.02;12.27;;;;;;;21.26;64.86;101880.47;4876103;28;124008;-76
2021/08/23 02:23:21;;;;;;;18.83;12.13;;;;;;;21.27;64.79;101889.44;4878789;28;114567;-76
2021/08/23 02:25:48;;;;;;;18.23;12.27;;;;;;;21.25;64.70;101891.34;4876577;28;113592;-76
2021/08/23 02:28:16;;;;;;;18.40;12.32;;;;;;;21.26;64.71;101895.78;4876432;28;98432;-77
2021/08/23 02:30:44;;;;;;;18.08;13.07;;;;;;;21.25;64.73;101896.75;4857868;28;123406;-77
2021/08/23 02:33:11;;;;;;;18.73;12.18;;;;;;;21.22;64.67;101902.38;4860935;28;113701;-78
2021/08/23 02:35:38;;;;;;;16.73;12.27;;;;;;;21.20;64.54;101906.03;4869693;28;114455;-78
2021/08/23 02:38:07;;;;;;;18.05;12.43;;;;;;;21.17;64.66;101911.66;4862056;28;124497;-77
2021/08/23 02:40:34;;;;;;;18.65;12.57;;;;;;;21.16;64.70;101915.31;4875614;28;123813;-77
2021/08/23 02:43:04;;;;;;;18.40;12.27;;;;;;;21.15;64.77;101913.63;4880342;28;113710;-77
2021/08/23 02:45:31;;;;;;;18.63;11.73;;;;;;;21.14;64.64;101922.66;4877341;28;115208;-77
2021/08/23 02:47:58;;;;;;;18.67;12.63;;;;;;;21.15;64.88;101913.63;4880804;28;124541;-77
2021/08/23 02:50:25;;;;;;;18.35;12.93;;;;;;;21.16;64.81;101920.72;4884957;28;124419;-77
2021/08/23 02:52:52;;;;;;;17.65;12.23;;;;;;;21.15;64.85;101924.41;4881031;28;115631;-78
2021/08/23 02:55:19;;;;;;;18.92;12.45;;;;;;;21.16;64.72;101920.72;4868950;28;115374;-77
2021/08/23 02:57:47;;;;;;;20.40;13.48;;;;;;;21.17;64.82;101922.44;4876140;28;124495;-77
2021/08/23 03:00:15;;;;;;;22.98;14.55;;;;;;;21.17;64.74;101927.84;4868620;28;122553;-77
2021/08/23 03:02:42;;;;;;;23.00;14.48;;;;;;;21.19;64.98;101925.88;4856449;28;113650;-77
2021/08/23 03:05:09;;;;;;;22.48;14.98;;;;;;;21.20;64.76;101937.50;4884151;28;114810;-77
2021/08/23 03:07:37;;;;;;;24.45;15.80;;;;;;;21.20;64.75;101938.38;4870577;28;123980;-77
2021/08/23 03:10:04;;;;;;;26.92;16.73;;;;;;;21.20;64.89;101934.81;4870840;28;123660;-77
2021/08/23 03:12:33;;;;;;;25.90;16.70;;;;;;;21.18;64.73;101937.63;4860468;28;113674;-78
2021/08/23 03:15:00;;;;;;;24.92;16.23;;;;;;;21.16;64.77;101939.56;4884029;28;114004;-78
2021/08/23 03:17:27;;;;;;;25.13;15.85;;;;;;;21.14;64.74;101941.50;4879719;28;124639;-77
2021/08/23 03:19:54;;;;;;;27.17;17.20;;;;;;;21.12;64.79;101935.38;4879498;28;123999;-78
2021/08/23 03:22:21;;;;;;;25.77;16.52;;;;;;;21.11;64.80;101944.41;4861684;28;114182;-77
2021/08/23 03:24:48;;;;;;;26.83;16.25;;;;;;;21.09;64.88;101940.97;4869506;28;114270;-78
2021/08/23 03:27:15;;;;;;;24.85;15.95;;;;;;;21.08;64.77;101950.06;4867470;28;124069;-77
2021/08/23 03:29:42;;;;;;;25.23;15.60;;;;;;;21.09;64.70;101954.44;4880649;28;124224;-78
2021/08/23 03:32:09;;;;;;;24.60;15.70;;;;;;;21.06;64.74;101962.78;4880874;28;115081;-77
2021/08/23 03:34:36;;;;;;;25.58;15.55;;;;;;;21.04;64.69;101958.44;4879278;28;112505;-78
2021/08/23 03:37:03;;;;;;;25.00;15.15;;;;;;;21.02;64.74;101966.66;4880578;28;124414;-77
2021/08/23 03:39:30;;;;;;;26.65;15.60;;;;;;;21.00;64.72;101963.19;4874363;28;124764;-77
2021/08/23 03:41:58;;;;;;;24.20;15.07;;;;;;;21.01;64.74;101964.91;4865077;28;114141;-77
2021/08/23 03:44:26;;;;;;;25.52;16.45;;;;;;;20.98;64.70;101962.44;4865230;28;115170;-77
2021/08/23 03:46:53;;;;;;;26.83;17.00;;;;;;;20.96;64.76;101967.06;4890208;28;124272;-78
2021/08/23 03:49:21;;;;;;;28.38;16.52;;;;;;;20.94;64.75;101963.63;4881445;28;123862;-78
2021/08/23 03:51:49;;;;;;;29.10;16.85;;;;;;;20.92;64.91;101965.56;4889457;28;114634;-78
2021/08/23 03:54:16;;;;;;;27.95;16.25;;;;;;;20.91;64.80;101974.66;4885005;28;113915;-77
2021/08/23 03:56:43;;;;;;;34.17;17.70;;;;;;;20.88;64.99;101972.16;4890648;28;124132;-78
2021/08/23 03:59:10;;;;;;;30.73;17.20;;;;;;;20.88;65.05;101980.22;4873862;28;124272;-77
2021/08/23 04:01:37;;;;;;;32.25;17.85;;;;;;;20.88;65.05;101980.22;4891762;28;114703;-78
2021/08/23 04:04:04;;;;;;;32.72;17.48;;;;;;;20.88;65.15;101985.63;4873979;28;113930;-76
2021/08/23 04:06:31;;;;;;;35.75;18.38;;;;;;;20.87;65.09;101989.28;4889093;28;123347;-77
2021/08/23 04:08:58;;;;;;;35.72;17.35;;;;;;;20.87;65.30;101995.53;4872122;28;123288;-76
2021/08/23 04:11:25;;;;;;;34.03;18.02;;;;;;;20.88;65.25;101991.84;4867821;28;114122;-77
2021/08/23 04:13:53;;;;;;;31.98;17.35;;;;;;;20.90;65.43;101994.44;4885628;28;114137;-77
2021/08/23 04:16:20;;;;;;;31.17;17.40;;;;;;;20.91;65.53;101998.88;4886864;28;124008;-77
2021/08/23 04:18:47;;;;;;;32.83;16.63;;;;;;;20.92;65.43;102005.97;4869713;28;123444;-78
2021/08/23 04:21:14;;;;;;;30.20;16.10;;;;;;;20.92;65.49;102004.13;4888748;28;114278;-77
2021/08/23 04:23:42;;;;;;;29.80;16.13;;;;;;;20.94;65.41;102007.56;4874273;28;112421;-78
2021/08/23 04:26:09;;;;;;;28.48;15.48;;;;;;;20.94;65.40;102012.13;4886481;28;124374;-77
2021/08/23 04:28:37;;;;;;;28.98;14.98;;;;;;;20.95;65.49;102008.47;4883553;28;123826;-77
2021/08/23 04:31:04;;;;;;;24.55;14.38;;;;;;;20.96;65.42;102010.16;4866088;28;114747;-78
2021/08/23 04:33:31;;;;;;;30.65;15.40;;;;;;;20.99;65.56;102009.97;4852140;28;113941;-77
2021/08/23 04:35:58;;;;;;;27.85;14.75;;;;;;;21.00;65.44;102017.06;4885775;28;125055;-78
2021/08/23 04:38:25;;;;;;;25.73;14.57;;;;;;;21.02;65.34;102020.53;4872845;28;123009;-77
2021/08/23 04:40:52;;;;;;;26.63;14.90;;;;;;;21.03;65.35;102022.25;4863251;28;113817;-77
2021/08/23 04:43:19;;;;;;;24.80;13.73;;;;;;;21.05;65.35;102031.06;4890292;28;115238;-78
2021/08/23 04:45:46;;;;;;;23.42;13.40;;;;;;;21.07;65.44;102030.97;4881201;28;124076;-79
2021/08/23 04:48:14;;;;;;;19.75;11.88;;;;;;;21.08;65.43;102029.97;4882245;28;123988;-77
2021/08/23 04:50:41;;;;;;;19.83;11.85;;;;;;;21.10;65.44;102038.84;4861756;28;114784;-78
2021/08/23 04:53:08;;;;;;;17.95;10.98;;;;;;;21.08;65.43;102036.25;4891561;28;114015;-78
2021/08/23 04:55:35;;;;;;;15.50;10.05;;;;;;;21.07;65.41;102039.91;4882078;28;123971;-79
2021/08/23 04:58:02;;;;;;;16.88;10.43;;;;;;;21.06;65.23;102054.38;4849220;28;122961;-77
2021/08/23 05:00:29;;;;;;;21.50;12.20;;;;;;;21.05;65.28;102051.78;4883096;28;114967;-77
2021/08/23 05:02:56;;;;;;;27.55;14.43;;;;;;;21.02;65.41;102063.63;4868291;28;113215;-77
2021/08/23 05:05:23;;;;;;;25.38;14.13;;;;;;;21.00;65.35;102065.53;4874079;28;123586;-77
2021/08/23 05:07:50;;;;;;;25.33;14.27;;;;;;;20.97;65.22;102060.38;4876886;28;124644;-77
2021/08/23 05:10:18;;;;;;;27.10;15.18;;;;;;;20.96;65.25;102064.03;4879749;28;114246;-77
2021/08/23 05:12:45;;;;;;;29.55;16.38;;;;;;;20.93;65.38;102075.03;4884805;28;113359;-77
2021/08/23 05:15:12;;;;;;;30.17;16.30;;;;;;;20.90;65.38;102075.25;4882051;28;124447;-77
2021/08/23 05:17:39;;;;;;;27.67;15.48;;;;;;;20.87;65.30;102068.25;4859255;28;122788;-77
2021/08/23 05:20:07;;;;;;;33.17;17.25;;;;;;;20.87;65.34;102086.22;4881382;28;115191;-77
2021/08/23 05:22:37;;;;;;;29.95;15.30;;;;;;;20.88;65.34;102087.97;4881386;28;114785;-77
2021/08/23 05:25:06;;;;;;;27.92;15.40;;;;;;;20.87;65.39;102086.22;4882619;28;123847;-77
2021/08/23 05:27:33;;;;;;;26.55;15.30;;;;;;;20.85;65.28;102099.81;4852122;28;123816;-76
2021/08/23 05:30:03;;;;;;;29.63;14.98;;;;;;;20.84;65.28;102103.47;4876128;28;114325;-76
2021/08/23 05:32:30;;;;;;;28.10;15.48;;;;;;;20.81;65.32;102098.28;4877066;28;113461;-77
2021/08/23 05:34:57;;;;;;;28.63;15.48;;;;;;;20.79;65.18;102101.09;4886216;28;123950;-77
2021/08/23 05:37:24;;;;;;;28.20;15.65;;;;;;;20.74;65.07;102097.84;4878208;28;124086;-77
2021/08/23 05:39:51;;;;;;;27.52;14.55;;;;;;;20.72;65.22;102104.28;4860207;28;113011;-77
2021/08/23 05:42:19;;;;;;;27.73;15.90;;;;;;;20.71;65.06;102106.13;4882640;28;114454;-77
2021/08/23 05:44:46;;;;;;;27.73;15.20;;;;;;;20.71;65.16;102114.19;4857942;28;121606;-77
2021/08/23 05:47:13;;;;;;;25.42;13.63;;;;;;;20.70;65.14;102112.50;4861256;28;123565;-77
2021/08/23 05:49:40;;;;;;;25.30;14.48;;;;;;;20.70;65.27;102117.88;4875882;28;116151;-77
2021/08/23 05:52:07;;;;;;;28.70;15.27;;;;;;;20.71;65.26;102118.72;4850054;28;113875;-77
2021/08/23 05:54:37;;;;;;;25.92;13.57;;;;;;;20.71;65.16;102124.13;4875893;28;123926;-77
2021/08/23 05:57:04;;;;;;;25.02;14.00;;;;;;;20.72;65.15;102132.09;4866358;28;124767;-78
2021/08/23 05:59:32;;;;;;;26.45;14.30;;;;;;;20.73;65.20;102127.56;4861325;28;113487;-77
2021/08/23 06:01:59;;;;;;;25.00;13.50;;;;;;;20.73;65.07;102135.63;4878779;28;113877;-77
2021/08/23 06:04:26;;;;;;;24.02;14.25;;;;;;;20.72;65.15;102142.84;4886125;28;123964;-78
2021/08/23 06:06:53;;;;;;;32.20;15.15;;;;;;;20.72;64.95;102140.16;4877410;28;123915;-77
2021/08/23 06:09:21;;;;;;;27.33;14.50;;;;;;;20.70;65.06;102149.28;4860268;28;114150;-77
2021/08/23 06:11:50;;;;;;;27.98;14.88;;;;;;;20.68;64.83;102153.91;4876915;28;115222;-76
2021/08/23 06:14:18;;;;;;;27.30;14.70;;;;;;;20.64;64.79;102157.78;4879136;28;124221;-76
2021/08/23 06:16:45;;;;;;;27.85;14.65;;;;;;;20.60;64.91;102159.81;4882479;28;123663;-75
2021/08/23 06:19:12;;;;;;;27.13;14.48;;;;;;;20.56;64.96;102158.28;4866898;28;113703;-75
2021/08/23 06:21:39;;;;;;;27.55;14.50;;;;;;;20.54;64.88;102157.50;4884604;28;113812;-76
2021/08/23 06:24:06;;;;;;;27.77;14.07;;;;;;;20.52;65.04;102162.13;4865240;28;124235;-75
2021/08/23 06:26:33;;;;;;;28.42;14.65;;;;;;;20.52;65.11;102159.44;4848831;28;123701;-76
2021/08/23 06:29:00;;;;;;;30.17;15.32;;;;;;;20.52;65.19;102157.59;4883752;28;114137;-75
2021/08/23 06:31:27;;;;;;;28.05;14.00;;;;;;;20.53;65.23;102164.72;4862466;28;113871;-75
2021/08/23 06:33:54;;;;;;;26.88;14.50;;;;;;;20.54;65.16;102170.97;4882513;28;123732;-75
2021/08/23 06:36:21;;;;;;;24.50;13.63;;;;;;;20.51;65.00;102171.16;4883404;28;124040;-75
2021/08/23 06:38:49;;;;;;;26.95;13.88;;;;;;;20.50;65.07;102166.75;4882162;28;113835;-76
2021/08/23 06:41:17;;;;;;;27.75;13.77;;;;;;;20.51;65.21;102171.16;4867852;28;113097;-76
2021/08/23 06:43:45;;;;;;;25.17;13.20;;;;;;;20.52;65.11;102171.06;4883234;28;124708;-76
2021/08/23 06:46:14;;;;;;;26.73;13.63;;;;;;;20.55;65.36;102167.28;4867973;28;124751;-75
2021/08/23 06:48:43;;;;;;;28.15;13.40;;;;;;;20.59;65.37;102174.22;4881319;28;114095;-76
2021/08/23 06:51:11;;;;;;;22.02;12.57;;;;;;;20.61;65.15;102178.56;4883420;28;113801;-75
2021/08/23 06:53:38;;;;;;;22.67;12.30;;;;;;;20.65;65.25;102176.53;4883228;28;123804;-75
2021/08/23 06:56:05;;;;;;;21.95;12.73;;;;;;;20.70;65.25;102182.50;4855563;28;123905;-76
2021/08/23 06:58:32;;;;;;;22.90;12.85;;;;;;;20.74;65.19;102173.25;4871981;28;115668;-77
2021/08/23 07:01:00;;;;;;;23.67;12.40;;;;;;;20.77;65.00;102173.00;4873460;28;114788;-76
2021/08/23 07:03:27;;;;;;;22.30;12.32;;;;;;;20.80;65.19;102177.34;4891320;28;124404;-75
2021/08/23 07:05:54;;;;;;;22.92;12.40;;;;;;;20.84;65.18;102184.25;4882275;28;124158;-76
2021/08/23 07:08:39;;;;;;;18.88;11.25;;;;;;;20.88;64.93;102187.59;4858098;28;114824;-75
2021/08/23 07:11:06;;;;;;;22.40;12.00;;;;;;;20.93;64.57;102182.78;4883799;28;113175;-75
2021/08/23 07:13:34;;;;;;;18.88;10.90;;;;;;;20.98;64.87;102183.31;4864134;28;124581;-75
2021/08/23 07:16:01;;;;;;;19.67;11.75;;;;;;;21.03;64.80;102188.41;4875520;28;123956;-75
2021/08/23 07:18:30;;;;;;;18.30;11.10;;;;;;;21.05;64.62;102198.09;4862126;28;113973;-75
2021/08/23 07:20:57;;;;;;;18.38;11.15;;;;;;;21.10;64.43;102190.56;4857899;28;113866;-75
2021/08/23 07:23:24;;;;;;;18.25;11.50;;;;;;;21.10;64.04;102195.97;4882930;28;124762;-75
2021/08/23 07:25:51;;;;;;;19.30;11.15;;;;;;;21.11;64.10;102197.66;4856516;28;124362;-75
2021/08/23 07:28:18;;;;;;;19.35;11.48;;;;;;;21.11;64.08;102196.81;4879627;28;114971;-75
2021/08/23 07:30:46;;;;;;;17.92;11.07;;;;;;;21.15;64.03;102199.22;4856280;28;112951;-75
2021/08/23 07:33:13;;;;;;;16.92;10.77;;;;;;;21.19;64.07;102198.03;4882180;28;123773;-75
2021/08/23 07:35:40;;;;;;;17.60;11.40;;;;;;;21.27;63.91;102196.63;4883335;28;124271;-75
2021/08/23 07:38:07;;;;;;;17.20;11.15;;;;;;;21.33;63.95;102196.22;4865423;28;113968;-75
2021/08/23 07:40:34;;;;;;;18.42;11.80;;;;;;;21.37;63.73;102203.09;4884363;28;114017;-75
2021/08/23 07:43:02;;;;;;;17.73;10.98;;;;;;;21.39;63.41;102203.84;4883547;28;124319;-75
2021/08/23 07:45:29;;;;;;;16.00;10.50;;;;;;;21.43;63.56;102208.06;4879168;28;123776;-75
2021/08/23 07:47:56;;;;;;;14.63;9.77;;;;;;;21.45;63.33;102211.53;4874711;28;114894;-76
2021/08/23 07:50:25;;;;;;;15.02;9.75;;;;;;;21.48;63.17;102211.34;4867491;28;115112;-75
2021/08/23 07:52:52;;;;;;;14.35;9.63;;;;;;;21.51;63.22;102211.13;4863245;28;123819;-75
2021/08/23 07:55:19;;;;;;;15.60;10.55;;;;;;;21.58;63.33;102217.81;4885393;28;124616;-76
2021/08/23 07:57:48;;;;;;;14.90;9.43;;;;;;;21.69;63.50;102218.91;4866252;28;114697;-75
2021/08/23 08:00:19;;;;;;;13.98;9.48;;;;;;;21.82;63.72;102217.06;4876759;28;113996;-76
2021/08/23 08:02:46;;;;;;;13.05;8.55;;;;;;;21.96;63.46;102216.97;4869026;28;123861;-76
2021/08/23 08:05:14;;;;;;;14.57;8.85;;;;;;;22.10;63.17;102223.19;4879305;28;124453;-76
2021/08/23 08:07:42;;;;;;;13.05;8.70;;;;;;;22.19;62.92;102224.34;4875380;28;113296;-75
2021/08/23 08:10:11;;;;;;;12.27;8.77;;;;;;;22.27;62.57;102225.56;4864145;28;112800;-75
2021/08/23 08:12:39;;;;;;;11.45;8.02;;;;;;;22.33;62.33;102225.09;4856774;28;125214;-75
2021/08/23 08:15:07;;;;;;;11.35;7.65;;;;;;;22.42;62.23;102233.53;4862747;28;122742;-75
2021/08/23 08:17:35;;;;;;;9.40;6.63;;;;;;;22.48;61.84;102238.47;4865613;28;114098;-75
2021/08/23 08:20:06;;;;;;;9.18;6.22;;;;;;;22.53;61.35;102236.28;4881248;28;113833;-75
2021/08/23 08:22:33;;;;;;;10.85;5.75;;;;;;;22.60;61.13;102237.53;4843394;28;123014;-75
2021/08/23 08:25:00;;;;;;;9.05;5.80;;;;;;;22.67;61.13;102243.38;4881065;28;124640;-75
2021/08/23 08:27:27;;;;;;;9.13;5.22;;;;;;;22.77;61.00;102238.13;4859478;28;114389;-75
2021/08/23 08:32:36;;;;;;;8.30;4.90;;;;;;;22.99;60.45;102238.25;4875417;28;99846;-69
2021/08/23 08:35:08;;;;;;;9.07;5.20;;;;;;;23.06;59.91;102234.13;4878519;28;124630;-69
2021/08/23 08:37:36;;;;;;;9.43;5.22;;;;;;;23.12;59.31;102244.47;4855381;28;114246;-69
2021/08/23 08:40:05;;;;;;;8.30;5.15;;;;;;;23.18;59.85;102245.00;4874625;28;115293;-69
2021/08/23 08:42:32;;;;;;;8.63;4.75;;;;;;;23.29;59.85;102245.03;4867491;28;123859;-70
2021/08/23 08:44:59;;;;;;;7.68;4.93;;;;;;;23.42;59.72;102251.22;4878945;28;123672;-71
2021/08/23 08:47:27;;;;;;;8.32;4.78;;;;;;;23.51;59.08;102255.91;4875313;28;114193;-70
2021/08/23 08:49:58;;;;;;;6.22;4.32;;;;;;;23.58;59.11;102260.84;4874873;28;114423;-69
2021/08/23 08:52:26;;;;;;;7.15;4.70;;;;;;;23.63;59.07;102255.94;4874694;28;124265;-69
2021/08/23 08:54:53;;;;;;;8.18;4.80;;;;;;;23.68;58.23;102248.31;4863603;28;124620;-69
2021/08/23 08:57:21;;;;;;;7.88;4.85;;;;;;;23.69;58.53;102259.00;4865493;28;114087;-69
2021/08/23 08:59:48;;;;;;;10.18;4.90;;;;;;;23.72;58.31;102268.75;4876370;28;114026;-69
2021/08/23 09:02:15;;;;;;;8.60;4.88;;;;;;;23.75;58.17;102268.47;4875501;28;123995;-69
2021/08/23 09:04:43;;;;;;;7.15;4.90;;;;;;;23.74;57.63;102266.78;4873986;28;123964;-69
2021/08/23 09:07:11;;;;;;;8.10;5.20;;;;;;;23.72;57.21;102279.56;4875134;28;114638;-68
2021/08/23 09:09:39;;;;;;;6.85;4.70;;;;;;;23.68;57.21;102269.97;4875009;28;113212;-68
2021/08/23 09:12:12;;;;;;;8.48;5.05;;;;;;;23.64;57.12;102281.97;4874491;28;123928;-68
2021/08/23 09:14:51;;;;;;;9.40;5.57;;;;;;;23.60;57.19;102280.50;4873766;28;124618;-69
2021/08/23 09:17:22;;;;;;;7.65;5.15;;;;;;;23.58;57.11;102282.47;4871746;28;114519;-68
2021/08/23 09:19:57;;;;;;;8.52;5.28;;;;;;;23.52;56.92;102276.53;4876870;28;114248;-68
2021/08/23 09:22:26;;;;;;;8.77;5.03;;;;;;;23.50;56.85;102285.78;4868249;28;124219;-68
2021/08/23 09:24:53;;;;;;;9.65;4.80;;;;;;;23.47;57.22;102281.47;4855845;28;124714;-68
2021/08/23 09:27:20;;;;;;;7.68;4.95;;;;;;;23.48;57.33;102288.59;4871126;28;115136;-68
2021/08/23 09:30:00;;;;;;;7.80;4.82;;;;;;;23.54;57.04;102286.41;4864547;28;115012;-69
2021/08/23 09:32:35;;;;;;;6.45;4.60;;;;;;;23.56;57.25;102289.84;4863718;28;123294;-69
2021/08/23 09:35:02;;;;;;;;;;;;;;;23.59;57.79;102289.63;4861384;28;123861;-69
2021/08/23 09:37:31;;;;;;;9.20;4.82;;;;;;;23.65;57.35;102294.53;4867477;28;114432;-69
2021/08/23 09:40:12;;;;;;;7.18;5.15;;;;;;;23.67;57.13;102298.00;4847232;28;114578;-68
2021/08/23 09:42:41;;;;;;;7.57;4.88;;;;;;;23.69;56.88;102301.44;4862475;28;124142;-68
2021/08/23 09:45:18;;;;;;;10.70;5.15;;;;;;;23.65;56.78;102299.97;4865225;28;124274;-68
2021/08/23 09:47:45;;;;;;;8.40;4.97;;;;;;;23.63;56.85;102301.91;4865232;28;114162;-68
2021/08/23 09:50:18;;;;;;;7.25;4.40;;;;;;;23.61;56.73;102298.47;4864242;28;113281;-68
2021/08/23 09:52:45;;;;;;;8.25;4.90;;;;;;;23.61;56.74;102304.75;4859683;28;123125;-68
2021/08/23 09:55:12;;;;;;;7.00;4.57;;;;;;;23.59;56.78;102306.69;4851743;28;122831;-68
2021/08/23 09:57:45;;;;;;;8.20;5.18;;;;;;;23.59;56.47;102316.66;4870726;28;114475;-69
2021/08/23 10:00:13;;;;;;;8.18;4.57;;;;;;;23.57;56.41;102318.63;4858064;28;114306;-69
2021/08/23 10:02:45;;;;;;;6.05;4.20;;;;;;;23.50;56.20;102319.06;4859520;28;123630;-69
2021/08/23 10:05:19;;;;;;;6.35;4.47;;;;;;;23.47;56.23;102319.34;4872665;28;124362;-69
2021/08/23 10:07:47;;;;;;;7.10;4.47;;;;;;;23.45;56.39;102318.59;4855105;28;114350;-69
2021/08/23 10:10:18;;;;;;;6.35;4.53;;;;;;;23.44;56.13;102324.13;4855544;28;113880;-69
2021/08/23 10:12:46;;;;;;;7.25;4.68;;;;;;;23.41;56.05;102322.47;4874358;28;124166;-69
2021/08/23 10:15:13;;;;;;;6.68;4.68;;;;;;;23.39;55.90;102321.75;4866682;28;123529;-69
2021/08/23 10:17:41;;;;;;;8.70;5.40;;;;;;;23.37;55.70;102318.28;4882333;28;115589;-69
2021/08/23 10:20:11;;;;;;;6.93;4.60;;;;;;;23.35;56.03;102314.84;4866600;28;114236;-69
2021/08/23 10:22:41;;;;;;;8.32;4.90;;;;;;;23.39;55.84;102321.75;4862263;28;124023;-69
2021/08/23 10:25:10;;;;;;;7.30;5.07;;;;;;;23.45;55.88;102313.19;4861191;28;124492;-68
2021/08/23 10:27:41;;;;;;;7.38;4.75;;;;;;;23.51;55.72;102320.81;4850480;28;114197;-69
2021/08/23 10:30:21;;;;;;;5.93;4.50;;;;;;;23.58;55.69;102321.19;4855648;28;113638;-68
2021/08/23 10:32:48;;;;;;;6.82;4.43;;;;;;;23.63;55.51;102315.44;4869243;28;124700;-69
2021/08/23 10:35:20;;;;;;;6.93;4.57;;;;;;;23.67;55.31;102323.19;4875966;28;123183;-68
2021/08/23 10:37:49;;;;;;;6.18;4.22;;;;;;;23.70;55.24;102322.09;4871157;28;114228;-69
2021/08/23 10:40:23;;;;;;;7.88;4.30;;;;;;;23.76;55.62;102318.91;4848998;28;113885;-69
2021/08/23 10:42:51;;;;;;;6.90;3.97;;;;;;;23.85;55.38;102318.25;4864786;28;123907;-69
2021/08/23 10:45:18;;;;;;;7.63;4.35;;;;;;;23.95;55.07;102317.53;4865543;28;123996;-69
2021/08/23 10:47:47;;;;;;;6.65;3.78;;;;;;;24.03;55.04;102325.88;4851320;28;113297;-69
2021/08/23 10:50:26;;;;;;;7.90;4.47;;;;;;;24.10;55.25;102321.72;4867968;28;114251;-68
2021/08/23 10:52:53;;;;;;;6.20;4.30;;;;;;;24.17;54.93;102317.53;4858976;28;124412;-69
2021/08/23 10:55:24;;;;;;;7.32;4.55;;;;;;;24.22;55.04;102326.16;4864711;28;124733;-69
2021/08/23 10:58:08;;;;;;;7.10;4.82;;;;;;;24.28;55.17;102324.81;4864667;28;114331;-68
2021/08/23 11:00:41;;;;;;;7.80;4.88;;;;;;;24.32;54.91;102330.81;4866191;28;114261;-69
2021/08/23 11:03:10;;;;;;;6.88;4.32;;;;;;;24.34;54.89;102328.88;4862082;28;123903;-68
2021/08/23 11:05:37;;;;;;;6.28;4.40;;;;;;;24.36;54.71;102329.63;4836866;28;122921;-69
2021/08/23 11:08:12;;;;;;;5.93;4.10;;;;;;;24.36;54.10;102321.50;4848268;28;114746;-68
2021/08/23 11:10:40;;;;;;;6.43;4.47;;;;;;;24.32;54.22;102330.81;4851913;28;114805;-69
2021/08/23 11:13:14;;;;;;;5.63;4.00;;;;;;;24.26;54.06;102330.34;4849512;28;124052;-69
2021/08/23 11:15:42;;;;;;;9.50;4.37;;;;;;;24.27;54.19;102329.34;4852842;28;124681;-69